Time;durP1;ratioP1;P1;durP2;ratioP2;P2;SDS_P1;SDS_P2;PMS_P1;PMS_P2;Temp;Humidity;BMP_temperature;BMP_pressure;BME280_temperature;BME280_humidity;BME280_pressure;Samples;Min_cycle;Max_cycle;Signal;HPM_P1;HPM_P2
2023/03/19 00:00:07;;;;;;;28.75;12.25;;;;;;;3.77;72.98;101319.88;4975072;28;20619;-76
2023/03/19 00:02:34;;;;;;;36.50;13.35;;;;;;;3.76;72.88;101325.88;4980262;28;20062;-76
2023/03/19 00:05:02;;;;;;;38.97;13.32;;;;;;;3.77;73.25;101321.59;4978851;28;20061;-77
2023/03/19 00:07:29;;;;;;;30.80;12.20;;;;;;;3.76;72.94;101331.06;4969720;28;20057;-76
2023/03/19 00:09:55;;;;;;;31.77;11.75;;;;;;;3.77;73.24;101322.44;4977208;28;20057;-77
2023/03/19 00:12:24;;;;;;;33.85;12.70;;;;;;;3.74;72.86;101314.63;4986024;28;20053;-76
2023/03/19 00:14:51;;;;;;;32.80;12.40;;;;;;;3.76;73.28;101322.44;4981871;28;20065;-75
2023/03/19 00:17:17;;;;;;;28.30;12.45;;;;;;;3.77;72.76;101326.75;4978111;28;20050;-77
2023/03/19 00:19:44;;;;;;;33.38;12.02;;;;;;;3.76;72.94;101328.47;4975368;28;20785;-77
2023/03/19 00:22:11;;;;;;;33.22;12.68;;;;;;;3.76;73.26;101328.47;4979348;28;20050;-77
2023/03/19 00:24:38;;;;;;;29.42;12.48;;;;;;;3.73;73.03;101327.53;4972290;28;20050;-76
2023/03/19 00:27:05;;;;;;;36.67;11.90;;;;;;;3.76;73.40;101335.34;4975043;28;20047;-75
2023/03/19 00:29:34;;;;;;;31.83;10.55;;;;;;;3.75;72.76;101331.00;4976332;28;21283;-76
2023/03/19 00:32:01;;;;;;;32.53;10.95;;;;;;;3.75;73.05;101331.88;4980457;28;20043;-76
2023/03/19 00:34:28;;;;;;;28.95;9.20;;;;;;;3.75;73.19;101328.44;4973794;28;20054;-76
2023/03/19 00:36:55;;;;;;;32.65;11.30;;;;;;;3.73;73.20;101328.41;4968644;28;20487;-76
2023/03/19 00:39:22;;;;;;;32.65;12.48;;;;;;;3.73;73.20;101333.59;4979980;28;20043;-76
2023/03/19 00:41:50;;;;;;;33.03;11.48;;;;;;;3.73;72.91;101336.16;4977578;28;20050;-77
2023/03/19 00:44:18;;;;;;;50.05;13.85;;;;;;;3.73;73.04;101345.59;4986890;28;20054;-76
2023/03/19 00:46:46;;;;;;;36.88;13.57;;;;;;;3.73;73.25;101343.03;4978980;28;20058;-76
2023/03/19 00:49:14;;;;;;;42.70;13.85;;;;;;;3.64;73.15;101335.97;4988817;28;20051;-76
2023/03/19 00:51:42;;;;;;;35.40;11.00;;;;;;;3.66;73.51;101336.00;4985888;28;20047;-76
2023/03/19 00:54:11;;;;;;;38.00;12.20;;;;;;;3.70;73.36;101343.88;4983220;28;20074;-76
2023/03/19 00:56:38;;;;;;;32.65;12.55;;;;;;;3.71;73.43;101345.59;4985771;28;20073;-76
2023/03/19 00:59:05;;;;;;;35.28;11.90;;;;;;;3.70;73.28;101354.19;4980490;28;20486;-76
2023/03/19 01:01:33;;;;;;;30.40;12.60;;;;;;;3.70;73.10;101356.78;4979474;28;20541;-76
2023/03/19 01:04:01;;;;;;;38.28;13.40;;;;;;;3.71;73.34;101355.94;4983894;28;20458;-77
2023/03/19 01:06:28;;;;;;;36.65;12.40;;;;;;;3.71;73.02;101350.75;4985659;28;20066;-76
2023/03/19 01:08:55;;;;;;;36.47;12.80;;;;;;;3.70;73.06;101358.47;4988675;28;20570;-76
2023/03/19 01:11:22;;;;;;;40.72;13.70;;;;;;;3.70;72.87;101361.94;4968941;28;20152;-76
2023/03/19 01:13:49;;;;;;;45.60;14.60;;;;;;;3.70;73.03;101363.63;4978236;28;20046;-76
2023/03/19 01:16:16;;;;;;;43.58;15.73;;;;;;;3.71;73.35;101370.56;4981679;28;20064;-77
2023/03/19 01:18:42;;;;;;;39.10;13.82;;;;;;;3.70;73.49;101367.13;4985349;28;20052;-76
2023/03/19 01:21:11;;;;;;;40.75;14.20;;;;;;;3.69;73.19;101365.34;4986262;28;20054;-76
2023/03/19 01:23:38;;;;;;;41.40;14.57;;;;;;;3.71;73.34;101365.41;4976865;28;20059;-76
2023/03/19 01:26:05;;;;;;;41.10;14.88;;;;;;;3.71;73.10;101366.25;4981197;28;20607;-76
2023/03/19 01:28:32;;;;;;;40.85;13.90;;;;;;;3.70;73.35;101367.13;4983478;28;20525;-76
2023/03/19 01:31:00;;;;;;;35.38;13.27;;;;;;;3.71;73.57;101373.16;4981076;28;20121;-76
2023/03/19 01:33:28;;;;;;;48.30;15.25;;;;;;;3.69;73.51;101367.94;4979014;28;20054;-76
2023/03/19 01:35:56;;;;;;;46.40;15.00;;;;;;;3.72;73.42;101374.88;4976970;28;20038;-76
2023/03/19 01:38:25;;;;;;;36.20;13.50;;;;;;;3.72;73.57;101369.72;4979498;28;20050;-76
2023/03/19 01:40:52;;;;;;;45.75;13.95;;;;;;;3.73;73.66;101381.78;4972149;28;20058;-77
2023/03/19 01:43:21;;;;;;;38.13;13.00;;;;;;;3.72;73.28;101378.34;4983094;28;20050;-77
2023/03/19 01:45:51;;;;;;;33.55;12.65;;;;;;;3.72;73.47;101380.91;4981575;28;20050;-76
2023/03/19 01:48:27;;;;;;;43.47;15.50;;;;;;;3.73;73.13;101384.38;4974195;28;20054;-76
2023/03/19 01:50:55;;;;;;;42.83;14.25;;;;;;;3.74;73.23;101381.81;4983675;28;20043;-77
2023/03/19 01:53:27;;;;;;;39.50;13.45;;;;;;;3.72;73.67;101378.34;4985427;28;20054;-76
2023/03/19 01:56:00;;;;;;;45.03;14.82;;;;;;;3.73;73.45;101385.25;4979900;28;20414;-77
2023/03/19 01:58:27;;;;;;;49.38;15.07;;;;;;;3.74;73.77;101387.00;4977407;28;20053;-76
2023/03/19 02:00:56;;;;;;;55.85;16.65;;;;;;;3.75;73.56;101385.28;4979618;28;20491;-76
2023/03/19 02:03:24;;;;;;;70.00;16.83;;;;;;;3.74;73.91;101399.91;4968476;28;20129;-75
2023/03/19 02:05:52;;;;;;;52.80;13.45;;;;;;;3.74;73.55;101394.75;4982561;28;20054;-76
2023/03/19 02:08:22;;;;;;;47.85;15.00;;;;;;;3.69;73.87;101383.44;4966902;28;20050;-75
2023/03/19 02:10:54;;;;;;;43.53;13.57;;;;;;;3.75;73.92;101401.63;4984150;28;20054;-76
2023/03/19 02:13:21;;;;;;;35.92;11.70;;;;;;;3.75;73.62;101393.91;4985780;28;20101;-77
2023/03/19 02:15:49;;;;;;;57.55;14.13;;;;;;;3.73;73.82;101400.75;4985679;28;20073;-76
2023/03/19 02:18:16;;;;;;;36.30;12.68;;;;;;;3.68;73.32;101386.88;4980662;28;20522;-76
2023/03/19 02:20:50;;;;;;;57.72;14.95;;;;;;;3.76;73.85;101398.25;4962583;28;20053;-77
2023/03/19 02:23:25;;;;;;;38.90;12.70;;;;;;;3.77;73.67;101405.13;4974168;28;20053;-76
2023/03/19 02:26:00;;;;;;;;;;;;;;;3.76;73.17;101398.25;4981063;28;20089;-76
2023/03/19 02:28:28;;;;;;;39.65;14.07;;;;;;;3.75;73.48;101399.06;4979119;28;19929;-77
2023/03/19 02:30:55;;;;;;;38.63;13.52;;;;;;;3.74;73.81;101402.50;4978979;28;20050;-77
2023/03/19 02:33:22;;;;;;;43.70;11.52;;;;;;;3.75;73.40;101409.41;4989617;28;20137;-76
2023/03/19 02:35:51;;;;;;;32.88;12.57;;;;;;;3.75;73.60;101404.22;4976788;28;20526;-77
2023/03/19 02:38:21;;;;;;;36.03;12.90;;;;;;;3.75;73.65;101400.78;4985058;28;20046;-76
2023/03/19 02:40:52;;;;;;;35.25;12.13;;;;;;;3.76;74.02;101400.81;4981163;28;21226;-76
2023/03/19 02:43:22;;;;;;;35.00;11.80;;;;;;;3.77;73.57;101399.97;4970969;28;20053;-78
2023/03/19 02:45:49;;;;;;;36.40;11.45;;;;;;;3.78;73.63;101411.16;4976853;28;20436;-76
2023/03/19 02:48:17;;;;;;;35.25;11.45;;;;;;;3.78;74.01;101409.44;4984521;28;20058;-76
2023/03/19 02:50:44;;;;;;;26.05;10.85;;;;;;;3.80;74.00;101417.25;4961316;28;20058;-76
2023/03/19 02:53:11;;;;;;;39.40;12.00;;;;;;;3.80;73.94;101412.94;4976084;28;20392;-76
2023/03/19 02:55:38;;;;;;;45.65;13.18;;;;;;;3.81;73.51;101418.97;4985091;28;20566;-76
2023/03/19 02:58:05;;;;;;;35.53;11.38;;;;;;;3.80;74.03;101425.88;4966045;28;21195;-76
2023/03/19 03:00:34;;;;;;;34.08;11.07;;;;;;;3.82;73.93;101431.09;4982077;28;20058;-77
2023/03/19 03:03:01;;;;;;;47.75;12.73;;;;;;;3.82;73.80;101426.78;4971841;28;20042;-69
2023/03/19 03:05:28;;;;;;;37.55;12.95;;;;;;;3.83;73.87;101430.22;4986191;28;20129;-69
2023/03/19 03:07:55;;;;;;;32.63;12.23;;;;;;;3.82;73.53;101439.69;4983279;28;20047;-69
2023/03/19 03:10:22;;;;;;;33.70;11.70;;;;;;;3.82;74.05;101437.13;4986301;28;20060;-69
2023/03/19 03:12:49;;;;;;;26.30;10.40;;;;;;;3.83;73.72;101436.25;4976342;28;20169;-69
2023/03/19 03:15:16;;;;;;;22.13;9.70;;;;;;;3.82;73.70;101434.53;4957198;28;20412;-69
2023/03/19 03:17:45;;;;;;;27.23;11.15;;;;;;;3.82;73.40;101442.28;4975355;28;20050;-69
2023/03/19 03:20:14;;;;;;;28.35;9.93;;;;;;;3.82;73.99;101447.44;4979468;28;20058;-69
2023/03/19 03:22:41;;;;;;;25.30;10.05;;;;;;;3.81;73.72;101442.25;4977429;28;20057;-69
2023/03/19 03:25:10;;;;;;;27.13;11.00;;;;;;;3.80;73.76;101443.09;4974736;28;20046;-72
2023/03/19 03:27:37;;;;;;;24.35;9.05;;;;;;;3.81;73.78;101444.81;4984719;28;20050;-72
2023/03/19 03:30:05;;;;;;;23.80;8.70;;;;;;;3.81;73.63;101450.00;4977667;28;20093;-72
2023/03/19 03:32:32;;;;;;;23.95;8.32;;;;;;;3.81;73.64;101448.31;4977123;28;20146;-72
2023/03/19 03:35:00;;;;;;;25.27;10.07;;;;;;;3.81;73.72;101453.47;4974193;28;20042;-72
2023/03/19 03:37:27;;;;;;;22.02;8.57;;;;;;;3.81;73.44;101461.22;4964273;28;20691;-72
2023/03/19 03:39:54;;;;;;;18.25;8.20;;;;;;;3.82;73.64;101462.97;4972791;28;20043;-72
2023/03/19 03:42:21;;;;;;;16.35;8.07;;;;;;;3.80;73.79;101451.72;4974732;28;20058;-72
2023/03/19 03:44:48;;;;;;;20.40;9.18;;;;;;;3.81;73.68;101466.41;4981877;28;20042;-69
2023/03/19 03:47:16;;;;;;;20.25;8.65;;;;;;;3.81;73.70;101461.22;4968613;28;20141;-71
2023/03/19 03:49:43;;;;;;;17.55;8.05;;;;;;;3.81;73.50;101466.41;4978385;28;20061;-70
2023/03/19 03:52:12;;;;;;;19.70;7.85;;;;;;;3.82;73.88;101464.69;4973358;28;20137;-70
2023/03/19 03:54:39;;;;;;;18.95;7.97;;;;;;;3.81;73.48;101475.84;4977640;28;20688;-70
2023/03/19 03:57:06;;;;;;;20.83;8.25;;;;;;;3.81;73.73;101473.25;4974031;28;20055;-70
2023/03/19 03:59:34;;;;;;;16.38;7.43;;;;;;;3.79;73.56;101473.25;4983562;28;20426;-72
2023/03/19 04:02:00;;;;;;;14.82;7.00;;;;;;;3.76;73.37;101472.31;4982361;28;20058;-71
2023/03/19 04:04:27;;;;;;;16.80;6.95;;;;;;;3.80;73.24;101481.84;4983743;28;20448;-70
2023/03/19 04:06:54;;;;;;;19.88;7.22;;;;;;;3.80;73.63;101474.09;4985350;28;20054;-71
2023/03/19 04:09:22;;;;;;;19.55;8.45;;;;;;;3.80;73.79;101484.44;4984422;28;20046;-71
2023/03/19 04:11:50;;;;;;;14.38;6.00;;;;;;;3.79;73.48;101483.56;4978367;28;20049;-71
2023/03/19 04:14:17;;;;;;;17.02;7.65;;;;;;;3.75;73.61;101480.88;4987211;28;20054;-71
2023/03/19 04:16:44;;;;;;;13.65;6.25;;;;;;;3.76;73.60;101475.75;4979565;28;20052;-71
2023/03/19 04:19:11;;;;;;;17.27;7.60;;;;;;;3.79;73.32;101487.88;4991660;28;20054;-71
2023/03/19 04:21:38;;;;;;;18.77;7.45;;;;;;;3.77;73.33;101480.06;4990589;28;20076;-71
2023/03/19 04:24:05;;;;;;;16.60;7.65;;;;;;;3.77;73.59;101493.00;4992420;28;20046;-71
2023/03/19 04:26:34;;;;;;;17.27;6.07;;;;;;;3.77;73.28;101486.97;4987720;28;20054;-71
2023/03/19 04:29:01;;;;;;;16.30;6.50;;;;;;;3.77;73.74;101495.59;4985205;28;20077;-71
2023/03/19 04:31:28;;;;;;;13.60;6.28;;;;;;;3.76;73.47;101490.41;4984656;28;20046;-71
2023/03/19 04:33:55;;;;;;;13.50;5.72;;;;;;;3.76;73.59;101492.97;4987664;28;20046;-71
2023/03/19 04:36:21;;;;;;;14.93;5.95;;;;;;;3.75;73.34;101492.09;4983037;28;20054;-71
2023/03/19 04:38:48;;;;;;;14.57;6.78;;;;;;;3.76;73.14;101493.84;4988865;28;20053;-71
2023/03/19 04:41:15;;;;;;;13.43;5.88;;;;;;;3.75;73.45;101501.56;4987301;28;20049;-71
2023/03/19 04:43:44;;;;;;;12.30;5.35;;;;;;;3.75;73.27;101488.63;4988865;28;20046;-71
2023/03/19 04:46:11;;;;;;;10.70;5.22;;;;;;;3.76;73.53;101493.84;4986613;28;20517;-71
2023/03/19 04:48:38;;;;;;;11.48;5.93;;;;;;;3.76;73.28;101492.97;4987400;28;20050;-71
2023/03/19 04:51:07;;;;;;;14.95;6.50;;;;;;;3.75;73.54;101496.38;4987187;28;20073;-71
2023/03/19 04:53:34;;;;;;;15.10;6.05;;;;;;;3.75;73.31;101506.72;4984403;28;20046;-71
2023/03/19 04:56:01;;;;;;;13.02;6.00;;;;;;;3.75;73.17;101497.25;4985713;28;20066;-71
2023/03/19 04:58:28;;;;;;;12.52;5.28;;;;;;;3.74;73.54;101498.09;4981625;28;20046;-71
2023/03/19 05:00:56;;;;;;;15.70;7.35;;;;;;;3.74;73.37;101507.56;4989415;28;20055;-71
2023/03/19 05:03:23;;;;;;;13.77;6.32;;;;;;;3.72;73.39;101502.34;4982592;28;20057;-71
2023/03/19 05:05:50;;;;;;;10.85;5.20;;;;;;;3.72;73.53;101494.59;4987062;28;20073;-71
2023/03/19 05:08:17;;;;;;;10.00;5.28;;;;;;;3.72;73.25;101494.59;4982378;28;20070;-71
2023/03/19 05:10:44;;;;;;;12.70;5.90;;;;;;;3.73;73.21;101504.13;4988482;28;20049;-71
2023/03/19 05:13:11;;;;;;;12.57;5.50;;;;;;;3.72;73.47;101507.53;4981209;28;20052;-71
2023/03/19 05:15:38;;;;;;;12.82;6.00;;;;;;;3.73;72.93;101508.38;4989686;28;20076;-73
2023/03/19 05:18:07;;;;;;;13.05;6.50;;;;;;;3.69;73.50;101504.88;4982488;28;20054;-71
2023/03/19 05:20:34;;;;;;;16.35;6.25;;;;;;;3.71;73.39;101508.38;4986553;28;20082;-71
2023/03/19 05:23:01;;;;;;;16.65;6.93;;;;;;;3.71;73.79;101507.50;4979006;28;20054;-71
2023/03/19 05:25:28;;;;;;;14.57;6.45;;;;;;;3.70;73.64;101514.41;4989404;28;20593;-71
2023/03/19 05:27:56;;;;;;;10.93;5.05;;;;;;;3.71;73.15;101510.09;4987979;28;20046;-71
2023/03/19 05:30:23;;;;;;;11.50;6.10;;;;;;;3.70;73.32;101504.06;4987607;28;20051;-71
2023/03/19 05:32:50;;;;;;;11.90;5.25;;;;;;;3.69;73.13;101501.44;4981143;28;20578;-71
2023/03/19 05:35:18;;;;;;;14.73;7.00;;;;;;;3.68;73.17;101500.56;4988555;28;20050;-71
2023/03/19 05:37:45;;;;;;;12.75;6.72;;;;;;;3.67;73.56;101498.84;4987417;28;20042;-72
2023/03/19 05:40:12;;;;;;;52.20;9.52;;;;;;;3.67;73.51;101503.09;4990588;28;20100;-71
2023/03/19 05:42:39;;;;;;;60.25;9.55;;;;;;;3.66;73.54;101503.94;4985011;28;20414;-70
2023/03/19 05:45:07;;;;;;;86.68;10.57;;;;;;;3.66;73.34;101516.88;4985419;28;20053;-71
2023/03/19 05:47:34;;;;;;;48.35;9.60;;;;;;;3.67;73.69;101523.78;4985107;28;20050;-71
2023/03/19 05:50:01;;;;;;;103.95;9.95;;;;;;;3.67;73.63;101535.00;4982645;28;20053;-71
2023/03/19 05:52:29;;;;;;;15.90;7.30;;;;;;;3.67;73.39;101528.94;4987117;28;20054;-71
2023/03/19 05:54:56;;;;;;;15.90;6.97;;;;;;;3.67;73.70;101529.84;4989609;28;20046;-71
2023/03/19 05:57:23;;;;;;;14.30;6.40;;;;;;;3.66;73.37;101528.06;4980621;28;20046;-71
2023/03/19 05:59:50;;;;;;;37.75;7.07;;;;;;;3.66;73.47;101530.66;4984052;28;20049;-71
2023/03/19 06:02:17;;;;;;;36.03;7.90;;;;;;;3.67;73.67;101524.66;4977078;28;20077;-72
2023/03/19 06:04:44;;;;;;;30.73;7.68;;;;;;;3.68;74.10;101528.97;4986593;28;20117;-71
2023/03/19 06:07:11;;;;;;;35.78;7.28;;;;;;;3.68;74.01;101539.31;4978939;28;20055;-71
2023/03/19 06:09:41;;;;;;;50.40;8.02;;;;;;;3.69;74.08;101543.63;4976363;28;20068;-71
2023/03/19 06:12:08;;;;;;;16.63;6.78;;;;;;;3.70;73.80;101545.41;4983850;28;20104;-70
2023/03/19 06:14:35;;;;;;;29.00;6.43;;;;;;;3.71;73.84;101552.31;4982534;28;20050;-71
2023/03/19 06:17:02;;;;;;;18.05;6.38;;;;;;;3.73;74.09;101544.56;4981929;28;20046;-71
2023/03/19 06:19:29;;;;;;;15.00;5.70;;;;;;;3.74;74.11;101542.03;4984166;28;20415;-71
2023/03/19 06:21:56;;;;;;;23.05;6.35;;;;;;;3.74;73.97;101552.38;4985627;28;20038;-72
2023/03/19 06:24:23;;;;;;;16.58;6.95;;;;;;;3.75;74.18;101548.94;4985295;28;20046;-71
2023/03/19 06:26:51;;;;;;;13.90;6.22;;;;;;;3.77;74.34;101549.84;4988105;28;20196;-71
2023/03/19 06:29:18;;;;;;;15.45;6.25;;;;;;;3.79;74.24;101555.06;4986800;28;20050;-71
2023/03/19 06:31:45;;;;;;;13.68;6.38;;;;;;;3.81;74.16;101553.38;4981968;28;20549;-72
2023/03/19 06:34:12;;;;;;;11.57;5.95;;;;;;;3.82;74.39;101552.53;4980169;28;20055;-71
2023/03/19 06:36:39;;;;;;;13.95;6.05;;;;;;;3.85;74.82;101559.50;4986971;28;20050;-71
2023/03/19 06:39:06;;;;;;;11.82;5.45;;;;;;;3.87;74.19;101566.44;4978965;28;20055;-72
2023/03/19 06:41:33;;;;;;;11.82;5.50;;;;;;;3.88;74.60;101573.34;4982957;28;20054;-71
2023/03/19 06:44:01;;;;;;;10.18;5.28;;;;;;;3.89;74.44;101569.03;4983703;28;20054;-71
2023/03/19 06:46:28;;;;;;;9.57;5.63;;;;;;;3.91;74.74;101576.00;4980393;28;20522;-71
2023/03/19 06:48:55;;;;;;;10.35;4.63;;;;;;;3.92;74.57;101572.56;4985142;28;20042;-71
2023/03/19 06:51:22;;;;;;;7.45;4.63;;;;;;;3.95;74.53;101574.34;4984959;28;20050;-71
2023/03/19 06:53:49;;;;;;;9.25;4.80;;;;;;;3.97;74.62;101572.69;4982664;28;20042;-71
2023/03/19 06:56:15;;;;;;;7.53;4.80;;;;;;;3.98;74.69;101570.09;4987139;28;20049;-71
2023/03/19 06:58:42;;;;;;;8.90;5.05;;;;;;;4.00;74.35;101585.66;4978987;28;20042;-71
2023/03/19 07:01:10;;;;;;;7.72;4.35;;;;;;;4.03;74.45;101593.47;4985068;28;20057;-71
2023/03/19 07:03:37;;;;;;;7.60;4.88;;;;;;;4.05;74.39;101595.25;4982857;28;20046;-71
2023/03/19 07:06:06;;;;;;;9.68;5.20;;;;;;;4.08;74.68;101589.28;4978766;28;20503;-72
2023/03/19 07:08:32;;;;;;;8.93;5.20;;;;;;;4.09;74.64;101603.94;4984219;28;20057;-71
2023/03/19 07:11:04;;;;;;;9.32;5.20;;;;;;;4.12;74.51;101605.72;4980964;28;20079;-70
2023/03/19 07:13:31;;;;;;;8.52;5.32;;;;;;;4.15;74.39;101609.25;4981754;28;20046;-71
2023/03/19 07:15:59;;;;;;;9.98;5.65;;;;;;;4.18;74.73;101603.25;4988974;28;20173;-71
2023/03/19 07:18:27;;;;;;;9.55;5.43;;;;;;;4.19;74.30;101608.47;4982164;28;20599;-71
2023/03/19 07:20:54;;;;;;;11.70;5.65;;;;;;;4.21;74.68;101604.22;4984963;28;20054;-70
2023/03/19 07:23:20;;;;;;;10.90;6.18;;;;;;;4.23;74.74;101615.44;4984375;28;20157;-70
2023/03/19 07:25:47;;;;;;;9.65;5.63;;;;;;;4.26;74.41;101620.69;4988307;28;20514;-71
2023/03/19 07:28:15;;;;;;;10.00;5.35;;;;;;;4.25;74.45;101611.19;4984082;28;20073;-71
2023/03/19 07:30:42;;;;;;;9.60;5.43;;;;;;;4.31;74.33;101618.22;4983812;28;20050;-70
2023/03/19 07:33:09;;;;;;;8.35;4.25;;;;;;;4.33;74.79;101605.31;4984242;28;20129;-70
2023/03/19 07:35:37;;;;;;;8.00;4.60;;;;;;;4.35;74.78;101614.84;4985728;28;20138;-70
2023/03/19 07:38:04;;;;;;;7.35;4.72;;;;;;;4.37;74.31;101618.34;4986864;28;20049;-71
2023/03/19 07:40:31;;;;;;;9.38;5.78;;;;;;;4.38;74.40;101611.44;4980829;28;20056;-70
2023/03/19 07:42:58;;;;;;;7.18;4.68;;;;;;;4.41;74.49;101614.97;4984833;28;20050;-70
2023/03/19 07:45:25;;;;;;;6.53;4.78;;;;;;;4.45;74.33;101619.38;4981313;28;20141;-71
2023/03/19 07:47:52;;;;;;;10.80;5.85;;;;;;;4.49;74.45;101625.47;4983148;28;20047;-72
2023/03/19 07:50:19;;;;;;;9.90;5.57;;;;;;;4.51;74.67;101626.38;4981311;28;20659;-72
2023/03/19 07:52:48;;;;;;;10.00;5.47;;;;;;;4.52;74.55;101620.34;4985039;28;20049;-70
2023/03/19 07:55:15;;;;;;;10.93;5.80;;;;;;;4.56;74.54;101627.34;4981704;28;20054;-72
2023/03/19 07:57:42;;;;;;;7.07;4.70;;;;;;;4.54;74.30;101616.09;4985183;28;20046;-72
2023/03/19 08:00:11;;;;;;;5.68;3.88;;;;;;;4.62;74.34;101622.28;4974909;28;20495;-72
2023/03/19 08:02:38;;;;;;;8.23;4.88;;;;;;;4.65;74.37;101626.66;4983763;28;20495;-71
2023/03/19 08:05:06;;;;;;;7.38;4.07;;;;;;;4.66;74.16;101634.44;4980763;28;20050;-72
2023/03/19 08:07:33;;;;;;;6.57;4.32;;;;;;;4.69;74.03;101631.91;4983873;28;20081;-71
2023/03/19 08:10:09;;;;;;;6.45;3.83;;;;;;;4.71;73.92;101627.63;4978418;28;20051;-72
2023/03/19 08:12:39;;;;;;;6.60;3.67;;;;;;;4.73;73.95;101633.72;4987528;28;20054;-73
2023/03/19 08:15:08;;;;;;;6.88;4.22;;;;;;;4.76;73.82;101627.72;4977915;28;20078;-72
2023/03/19 08:17:37;;;;;;;6.47;4.05;;;;;;;4.79;73.85;101632.09;4982702;28;20062;-73
2023/03/19 08:20:05;;;;;;;4.97;3.45;;;;;;;4.82;73.79;101629.56;4985629;28;20043;-73
2023/03/19 08:22:32;;;;;;;6.88;4.95;;;;;;;4.84;73.79;101645.97;4987517;28;20491;-73
2023/03/19 08:24:59;;;;;;;5.25;3.83;;;;;;;4.86;73.73;101654.66;4983137;28;20415;-72
2023/03/19 08:27:29;;;;;;;8.85;5.18;;;;;;;4.87;73.77;101653.81;4986846;28;20066;-73
2023/03/19 08:29:56;;;;;;;5.90;4.25;;;;;;;4.88;73.71;101647.78;4976762;28;20466;-73
2023/03/19 08:32:23;;;;;;;9.93;5.03;;;;;;;4.91;73.94;101647.84;4981899;28;20050;-73
2023/03/19 08:34:50;;;;;;;9.77;5.15;;;;;;;4.93;73.71;101641.00;4981672;28;20054;-72
2023/03/19 08:37:17;;;;;;;7.20;3.83;;;;;;;4.95;73.76;101639.28;4981112;28;20046;-71
2023/03/19 08:39:44;;;;;;;8.07;5.38;;;;;;;4.96;73.59;101641.91;4981802;28;20066;-71
2023/03/19 08:42:11;;;;;;;9.07;4.85;;;;;;;4.98;73.62;101631.59;4982723;28;20043;-71
2023/03/19 08:44:39;;;;;;;7.40;4.40;;;;;;;5.02;73.45;101627.34;4985141;28;20054;-71
2023/03/19 08:47:06;;;;;;;7.63;4.95;;;;;;;5.03;73.31;101632.53;4979164;28;20050;-71
2023/03/19 08:49:34;;;;;;;9.57;5.90;;;;;;;5.06;73.25;101639.47;4986037;28;20050;-72
2023/03/19 08:52:00;;;;;;;9.82;5.20;;;;;;;5.05;73.17;101641.22;4980626;28;20495;-71
2023/03/19 08:54:27;;;;;;;9.27;4.85;;;;;;;5.07;73.27;101638.66;4982226;28;20050;-71
2023/03/19 08:56:54;;;;;;;7.80;5.10;;;;;;;5.10;73.22;101646.47;4975036;28;20039;-71
2023/03/19 08:59:21;;;;;;;9.07;5.22;;;;;;;5.12;73.29;101648.25;4981003;28;20061;-71
2023/03/19 09:01:52;;;;;;;7.60;4.53;;;;;;;5.14;73.05;101649.13;4965068;28;20132;-71
2023/03/19 09:04:19;;;;;;;9.38;5.05;;;;;;;5.17;73.41;101645.72;4979647;28;20129;-71
2023/03/19 09:06:49;;;;;;;7.93;4.78;;;;;;;5.18;73.18;101648.38;4976043;28;20047;-72
2023/03/19 09:09:16;;;;;;;7.68;4.70;;;;;;;5.21;73.15;101647.53;4971332;28;20046;-69
2023/03/19 09:11:43;;;;;;;7.72;5.00;;;;;;;5.25;72.93;101643.28;4971866;28;20521;-71
2023/03/19 09:14:11;;;;;;;9.18;4.72;;;;;;;5.26;72.96;101650.19;4984465;28;20061;-71
2023/03/19 09:16:38;;;;;;;9.80;5.45;;;;;;;5.27;73.01;101651.97;4978855;28;20497;-71
2023/03/19 09:19:07;;;;;;;9.05;5.35;;;;;;;5.29;73.03;101650.25;4986098;28;20047;-72
2023/03/19 09:21:34;;;;;;;12.15;5.60;;;;;;;5.30;72.96;101654.59;4975093;28;20055;-72
2023/03/19 09:24:01;;;;;;;11.57;6.05;;;;;;;5.31;73.21;101657.19;4986534;28;20053;-72
2023/03/19 09:26:28;;;;;;;12.40;6.03;;;;;;;5.34;73.00;101658.97;4981014;28;20065;-72
2023/03/19 09:28:55;;;;;;;12.68;6.60;;;;;;;5.35;73.17;101660.72;4978853;28;20071;-73
2023/03/19 09:31:22;;;;;;;11.32;6.15;;;;;;;5.36;73.11;101663.34;4965685;28;20050;-73
2023/03/19 09:33:49;;;;;;;13.18;6.55;;;;;;;5.39;72.97;101673.75;4983262;28;20177;-72
2023/03/19 09:36:17;;;;;;;17.92;7.60;;;;;;;5.41;72.79;101671.22;4978768;28;20061;-72
2023/03/19 09:38:45;;;;;;;14.98;6.85;;;;;;;5.43;73.15;101679.84;4980313;28;20483;-72
2023/03/19 09:41:19;;;;;;;11.80;7.35;;;;;;;5.44;73.11;101672.97;4984846;28;20057;-72
2023/03/19 09:43:58;;;;;;;15.85;7.47;;;;;;;5.47;73.11;101670.44;4978149;28;20062;-72
2023/03/19 09:46:32;;;;;;;13.88;7.30;;;;;;;5.47;73.08;101673.03;4974546;28;20054;-72
2023/03/19 09:49:05;;;;;;;14.85;5.65;;;;;;;5.48;73.19;101678.22;4984585;28;20727;-72
2023/03/19 09:51:41;;;;;;;10.95;6.82;;;;;;;5.49;73.12;101677.38;4984224;28;20075;-72
2023/03/19 09:54:21;;;;;;;18.80;7.30;;;;;;;5.51;73.17;101678.28;4978039;28;20058;-72
2023/03/19 09:56:48;;;;;;;15.00;7.68;;;;;;;5.52;73.20;101685.22;4983599;28;20042;-72
2023/03/19 09:59:15;;;;;;;14.98;7.00;;;;;;;5.55;73.10;101680.09;4983086;28;20128;-72
2023/03/19 10:01:48;;;;;;;17.02;7.75;;;;;;;5.57;73.17;101672.31;4985508;28;20043;-72
2023/03/19 10:04:48;;;;;;;19.20;8.13;;;;;;;5.58;73.14;101664.59;4976710;28;20069;-72
2023/03/19 10:07:29;;;;;;;17.73;7.82;;;;;;;5.59;73.06;101668.03;4977274;28;20508;-72
2023/03/19 10:10:13;;;;;;;15.27;6.60;;;;;;;5.62;73.03;101671.53;4974622;28;20062;-72
2023/03/19 10:12:50;;;;;;;14.40;6.70;;;;;;;5.66;72.91;101667.28;4978540;28;20042;-72
2023/03/19 10:15:21;;;;;;;11.35;6.15;;;;;;;5.66;72.88;101656.03;4973933;28;20410;-71
2023/03/19 10:17:57;;;;;;;16.15;7.10;;;;;;;5.68;72.94;101660.41;4983790;28;20061;-71
2023/03/19 10:20:35;;;;;;;17.35;7.85;;;;;;;5.72;72.89;101661.31;4976419;28;20050;-72
2023/03/19 10:23:17;;;;;;;17.13;7.88;;;;;;;5.74;72.91;101659.63;4975816;28;20098;-72
2023/03/19 10:25:45;;;;;;;14.75;7.50;;;;;;;5.77;72.76;101667.44;4984788;28;20051;-71
2023/03/19 10:28:15;;;;;;;12.90;7.28;;;;;;;5.73;72.66;101655.31;4975571;28;20446;-72
2023/03/19 10:30:45;;;;;;;16.35;7.05;;;;;;;5.84;72.66;101669.31;4973081;28;20562;-71
2023/03/19 10:33:22;;;;;;;13.80;7.68;;;;;;;5.86;72.66;101676.25;4978247;28;20047;-71
2023/03/19 10:35:57;;;;;;;13.15;6.88;;;;;;;5.88;72.80;101668.50;4977233;28;20077;-71
2023/03/19 10:38:26;;;;;;;10.60;5.60;;;;;;;5.92;72.68;101667.69;4974328;28;20426;-73
2023/03/19 10:41:16;;;;;;;10.88;5.38;;;;;;;5.92;72.68;101670.28;4984934;28;20061;-71
2023/03/19 10:43:47;;;;;;;8.98;4.97;;;;;;;5.96;72.87;101669.50;4980592;28;20046;-71
2023/03/19 10:46:14;;;;;;;10.52;5.78;;;;;;;5.98;72.58;101665.22;4983340;28;20058;-71
2023/03/19 10:48:45;;;;;;;11.07;5.43;;;;;;;6.00;72.62;101667.81;4977684;28;20054;-72
2023/03/19 10:51:15;;;;;;;11.52;5.78;;;;;;;6.02;72.42;101667.00;4972683;28;20050;-71
2023/03/19 10:53:43;;;;;;;11.20;6.18;;;;;;;6.05;72.42;101676.56;4985832;28;20058;-72
2023/03/19 10:56:19;;;;;;;9.15;5.40;;;;;;;6.03;72.46;101663.59;4973555;28;20066;-72
2023/03/19 10:58:57;;;;;;;11.88;6.45;;;;;;;6.07;72.37;101675.72;4984348;28;20050;-72
2023/03/19 11:01:28;;;;;;;9.10;4.60;;;;;;;6.11;72.54;101675.78;4967482;28;20062;-72
2023/03/19 11:03:57;;;;;;;9.90;5.90;;;;;;;6.12;72.32;101680.09;4967858;28;20054;-72
2023/03/19 11:06:26;;;;;;;9.25;5.05;;;;;;;6.14;72.25;101670.63;4977599;28;20066;-71
2023/03/19 11:08:58;;;;;;;9.18;4.93;;;;;;;6.14;72.40;101671.50;4975780;28;20050;-71
2023/03/19 11:11:27;;;;;;;8.88;5.38;;;;;;;6.18;72.43;101672.44;4980401;28;20408;-72
2023/03/19 11:13:54;;;;;;;11.63;5.47;;;;;;;6.18;72.48;101678.47;4983295;28;20058;-71
2023/03/19 11:16:21;;;;;;;10.40;5.60;;;;;;;6.19;72.43;101676.75;4979339;28;20046;-72
2023/03/19 11:18:49;;;;;;;10.38;5.53;;;;;;;6.21;72.22;101673.34;4980838;28;20050;-71
2023/03/19 11:21:25;;;;;;;10.65;6.35;;;;;;;6.23;72.24;101673.34;4974261;28;20182;-73
2023/03/19 11:23:58;;;;;;;9.15;5.75;;;;;;;6.24;72.49;101677.69;4975067;28;20054;-71
2023/03/19 11:26:27;;;;;;;14.27;5.82;;;;;;;6.26;72.31;101675.97;4973380;28;20074;-72
2023/03/19 11:28:56;;;;;;;9.18;5.55;;;;;;;6.28;72.22;101682.06;4978783;28;20142;-72